Impacts METAR Board
IDs:

KCXO - Conroe/Executive Arp, TX, US

Updated at: 2100 UTC 21 May 2022
Potential Impact None Slight Moderate High
Time 21/09Z 21/10Z 21/11Z 21/12Z 21/13Z 21/14Z 21/15Z 21/16Z 21/17Z 21/18Z 21/19Z 21/20Z 21/21Z
Temp78 78 77 78 79 82 86 87 91 91 92 95 94
Dewpt74 74 74 74 75 75 74 74 73 74 75 76 76
Altim29.79 29.80 29.81 29.82 29.85 29.88 29.89 29.90 29.90 29.90 29.89 29.88 29.86
VIS10 10 10 5 5 10 10 10 10 10 10 10 10
CIG33 -- 27 -- 22 27 -- -- -- 55 -- -- --
CoverBKNSCTBKNCLROVCOVCSCTSCTSCTBKNSCTSCTSCT
FltCatVFRVFRMVFRMVFRMVFRMVFRVFRVFRVFRVFRVFRVFRVFR
WX------BRBR----------------
WDir130130150130170170170170160150140150140
WSpd6 9 8 7 8 10 17 11 12 9 13 15 12
WGst-- -- -- -- -- -- 22 -- 20 -- 20 23 24
Raw hourly METARs
KCXO 210853Z AUTO 13006KT 10SM BKN033 26/23 A2979 RMK AO2 SLP083 T02560233 56001
KCXO 211005Z AUTO 13009KT 10SM SCT028 26/23 A2980 RMK AO2 T02560233
KCXO 211053Z 15008KT 10SM BKN027 25/23 A2981 RMK AO2 SLP092 T02500233
KCXO 211153Z 13007KT 5SM BR CLR 26/23 A2982 RMK AO2 SLP093 T02560233 10267 20250 51005
KCXO 211253Z 17008KT 5SM BR OVC022 26/24 A2985 RMK AO2 SLP104 T02610239
KCXO 211353Z 17010KT 10SM FEW018 OVC027 28/24 A2988 RMK AO2 SLP113 T02780239
KCXO 211453Z 17017G22KT 10SM FEW029 SCT036 30/23 A2989 RMK AO2 SLP117 T03000233 51012
KCXO 211553Z 17011KT 10SM SCT030 SCT039 31/23 A2990 RMK AO2 PK WND 17026/1515 SLP121 T03060233
KCXO 211653Z 16012G20KT 10SM SCT041 33/23 A2990 RMK AO2 SLP121 T03280228
KCXO 211753Z 15009KT 10SM SCT043 BKN055 33/23 A2990 RMK AO2 SLP120 T03280233 10339 20256 50003
KCXO 211853Z 14013G20KT 10SM SCT041 SCT048 SCT060 33/24 A2989 RMK AO2 SLP118 T03330239
KCXO 211953Z 15015G23KT 10SM SCT042 SCT055 35/24 A2988 RMK AO2 SLP114 T03500244
KCXO 212053Z 14012G24KT 10SM SCT038 34/24 A2986 RMK AO2 SLP107 T03440244 58013



Page loaded:  21:47 UTC  |   02:47 PM Pacific  |   03:47 PM Mountain  |   04:47 PM Central  |   05:47 PM Eastern

 

ADVISORIES

FORECASTS

FORECASTS

OBSERVATIONS

USER TOOLS

ABOUT US